ETWM 200020Z AUTO 33003KT //// // ////// 13/11 Q1021 /// ETWM 192320Z AUTO 25005KT //// // ////// 13/12 Q1021 /// ETWM 192220Z AUTO 26005KT //// // ////// 14/12 Q1020 /// ETWM 192120Z AUTO 28005KT //// // ////// 16/14 Q1019 /// ETWM 192020Z AUTO 28005KT //// // ////// 17/15 Q1019 /// ETWM 191920Z AUTO 24004KT //// // ////// 19/17 Q1018 /// ETWM 191820Z AUTO 21005KT //// // ////// 19/18 Q1018 /// ETWM 191720Z AUTO 20005KT //// // ////// 19/18 Q1017 /// ETWM 191620Z AUTO 10004KT //// // ////// 19/18 Q1016 /// ETWM 191520Z AUTO 02002KT //// // ////// 18/17 Q1016 /// ETWM 191420Z AUTO 28010G31KT //// // ////// 19/17 Q1019 /// ETWM 191320Z AUTO 21006KT //// // ////// 26/13 Q1016 /// ETWM 191220Z 22003KT 9999 FEW050 SCT160 BKN200 28/13 Q1015 BLU+ ETWM 191120Z 16003KT 9999 FEW050 BKN190 BKN240 26/13 Q1016 BLU ETWM 191020Z 29003KT 9999 FEW075 BKN210 25/13 Q1017 BLU+ ETWM 190920Z 06002KT 9999 FEW075 SCT160 BKN180 25/13 Q1017 BLU ETWM 190820Z 26002KT 9999 FEW075 BKN160 BKN230 24/13 Q1017 BLU ETWM 190720Z 25005KT 9999 FEW035 BKN180 23/13 Q1017 BLU ETWM 190620Z 22005KT 9999 FEW077 BKN210 21/14 Q1018 BLU+ ETWM 190520Z 17003KT 9999 FEW075 SCT100 BKN210 18/14 Q1017 BLU+ ETWM 190420Z VRB01KT 9000 MIFG FEW070 BKN230 BKN370 14/13 Q1017 BLU+ ETWM 190320Z AUTO 04002KT //// // ////// 14/13 Q1017 /// ETWM 190220Z AUTO VRB02KT //// // ////// 14/13 Q1017 /// ETWM 190120Z AUTO 02002KT //// // ////// 15/14 Q1018 /// ETWM 190020Z AUTO 00000KT //// // ////// 15/14 Q1018 /// ETWM 182320Z AUTO 03001KT //// // ////// 16/14 Q1019 /// ETWM 182220Z AUTO 02001KT //// // ////// 17/14 Q1019 /// ETWM 182120Z AUTO 01002KT //// // ////// 18/14 Q1019 /// ETWM 182020Z AUTO 36003KT //// // ////// 19/15 Q1020 /// ETWM 181920Z AUTO 36005KT //// // ////// 22/16 Q1019 /// ETWM 181820Z AUTO 36007KT //// // ////// 24/16 Q1019 /// ETWM 181720Z AUTO 34007KT //// // ////// 26/16 Q1019 /// ETWM 181620Z AUTO 27004KT //// // ////// 28/14 Q1019 /// ETWM 181520Z AUTO 25007KT //// // ////// 28/12 Q1019 /// ETWM 181420Z 24006KT 9999 FEW060 SCT100 BKN380 28/12 Q1019 BLU+ ETWM 181320Z 25007KT 9999 FEW060 SCT380 29/13 Q1019 BLU+

METAR Messwerte "MEPPEN" ETWM

Zurück zur Übersicht

Ortsname
Ländercode / m ü. NN
Zeit Temperatur Taupunkt Rel.
Luftfeuchte
Luftdruck:
Altimeter
NN
Station
Wind in Beaufort
(Knoten)
Sichtweite
(Meter)
Wolken
(Meter über Grund)
Wettererscheinung
MEPPEN
DE 18
Fr 20.05. 02:20131188 %1021
1021
1019
NNW 2 (3)   
MEPPEN
DE 18
Fr 20.05. 01:20131294 %1021
1021
1019
WSW 2 (5)   
MEPPEN
DE 18
Fr 20.05. 00:20141288 %1020
1020
1018
W 2 (5)   
MEPPEN
DE 18
Do 19.05. 23:20161488 %1019
1019
1017
W 2 (5)   
MEPPEN
DE 18
Do 19.05. 22:20171588 %1019
1019
1017
W 2 (5)   
MEPPEN
DE 18
Do 19.05. 21:20191788 %1018
1018
1016
WSW 2 (4)   
MEPPEN
DE 18
Do 19.05. 20:20191894 %1018
1018
1016
SSW 2 (5)   
MEPPEN
DE 18
Do 19.05. 19:20191894 %1017
1017
1015
SSW 2 (5)   
MEPPEN
DE 18
Do 19.05. 18:20191894 %1016
1016
1014
O 2 (4)   
MEPPEN
DE 18
Do 19.05. 17:20181794 %1016
1016
1014
NNO 1 (2)   
MEPPEN
DE 18
Do 19.05. 16:20191788 %1019
1019
1017
W 3 (10) - 7 (31)   
MEPPEN
DE 18
Do 19.05. 15:20261345 %1016
1016
1014
SSW 2 (6)   
MEPPEN
DE 18
Do 19.05. 14:20281340 %1015
1015
1013
SW 2 (3)>= 10000Stark bewölkt (6100)
Wolkig (4900)
Leicht bewölkt (1500)
 
MEPPEN
DE 18
Do 19.05. 13:20261345 %1016
1016
1014
SSO 2 (3)>= 10000Stark bewölkt (7300)
Stark bewölkt (5800)
Leicht bewölkt (1500)
 
MEPPEN
DE 18
Do 19.05. 12:20251347 %1017
1017
1015
WNW 2 (3)>= 10000Stark bewölkt (6400)
Leicht bewölkt (2300)
 
MEPPEN
DE 18
Do 19.05. 11:20251347 %1017
1017
1015
ONO 1 (2)>= 10000Stark bewölkt (5500)
Wolkig (4900)
Leicht bewölkt (2300)
 
MEPPEN
DE 18
Do 19.05. 10:20241350 %1017
1017
1015
W 1 (2)>= 10000Stark bewölkt (7000)
Stark bewölkt (4900)
Leicht bewölkt (2300)
 
MEPPEN
DE 18
Do 19.05. 09:20231353 %1017
1017
1015
WSW 2 (5)>= 10000Stark bewölkt (5500)
Leicht bewölkt (1100)
 
MEPPEN
DE 18
Do 19.05. 08:20211464 %1018
1018
1016
SW 2 (5)>= 10000Stark bewölkt (6400)
Leicht bewölkt (2300)
 
MEPPEN
DE 18
Do 19.05. 07:20181477 %1017
1017
1015
S 2 (3)>= 10000Stark bewölkt (6400)
Wolkig (3000)
Leicht bewölkt (2300)
 
MEPPEN
DE 18
Do 19.05. 06:20141394 %1017
1017
1015
Uml 1 (1)9000Stark bewölkt (11000)
Stark bewölkt (7000)
Leicht bewölkt (2100)
Boden-Nebel
MEPPEN
DE 18
Do 19.05. 05:20141394 %1017
1017
1015
NO 1 (2)   
MEPPEN
DE 18
Do 19.05. 04:20141394 %1017
1017
1015
Uml 1 (2)   
MEPPEN
DE 18
Do 19.05. 03:20151494 %1018
1018
1016
NNO 1 (2)   
MEPPEN
DE 18
Do 19.05. 02:20151494 %1018
1018
1016
Windstill   
MEPPEN
DE 18
Do 19.05. 01:20161488 %1019
1019
1017
NNO 1 (1)   
MEPPEN
DE 18
Do 19.05. 00:20171482 %1019
1019
1017
NNO 1 (1)   
MEPPEN
DE 18
Mi 18.05. 23:20181477 %1019
1019
1017
N 1 (2)   
MEPPEN
DE 18
Mi 18.05. 22:20191578 %1020
1020
1018
N 2 (3)   
MEPPEN
DE 18
Mi 18.05. 21:20221669 %1019
1019
1017
N 2 (5)   
MEPPEN
DE 18
Mi 18.05. 20:20241661 %1019
1019
1017
N 3 (7)   
MEPPEN
DE 18
Mi 18.05. 19:20261654 %1019
1019
1017
NNW 3 (7)   
MEPPEN
DE 18
Mi 18.05. 18:20281442 %1019
1019
1017
W 2 (4)   
MEPPEN
DE 18
Mi 18.05. 17:20281237 %1019
1019
1017
WSW 3 (7)   
MEPPEN
DE 18
Mi 18.05. 16:20281237 %1019
1019
1017
WSW 2 (6)>= 10000Stark bewölkt (12000)
Wolkig (3000)
Leicht bewölkt (1800)
 
MEPPEN
DE 18
Mi 18.05. 15:20291337 %1019
1019
1017
WSW 3 (7)>= 10000Wolkig (12000)
Leicht bewölkt (1800)
 

Altimeter: Einstellung am Altimeter (Höhenmesser), die Höhe 0 muss auf diesen Luftdruckwert zeigen, damit das Gerät die Stationshöhe richtig anzeigt.

NN: Luftdruck reduziert auf "Normal Null", auf Meereshöhe, dieser von der Temperatur abhängige Wert wird bisweilen unkorrekt einfach als "Luftdruck" bezeichnet. Eigentlich nur eine fiktive Größe, die es erlaubt, Stationen auf unterschiedlichen Höhen miteinander zu vergleichen.

Station: Realer Luftdruck an der Station.